Time;durP1;ratioP1;P1;durP2;ratioP2;P2;SDS_P1;SDS_P2;PMS_P1;PMS_P2;Temp;Humidity;BMP_temperature;BMP_pressure;BME280_temperature;BME280_humidity;BME280_pressure;Samples;Min_cycle;Max_cycle;Signal;HPM_P1;HPM_P2
2024/01/03 00:00:28;;;;;;;18.77;1.83;;;8.10;99.90;;;;;;5134529;27;20476;-92
2024/01/03 00:02:55;;;;;;;20.20;1.60;;;8.10;99.90;;;;;;5132935;27;20381;-93
2024/01/03 00:05:23;;;;;;;22.60;2.17;;;8.10;99.90;;;;;;5151801;27;20490;-92
2024/01/03 00:07:49;;;;;;;17.23;1.52;;;8.30;99.90;;;;;;5132908;27;20459;-88
2024/01/03 00:10:48;;;;;;;21.50;1.83;;;8.00;99.90;;;;;;5151370;27;20432;-92
2024/01/03 00:13:29;;;;;;;18.13;1.67;;;8.00;99.90;;;;;;5134382;27;20401;-94
2024/01/03 00:16:04;;;;;;;16.23;2.03;;;7.90;99.90;;;;;;5150289;27;21009;-93
2024/01/03 00:18:56;;;;;;;21.67;2.22;;;7.90;99.90;;;;;;5134370;27;20405;-94
2024/01/03 00:21:25;;;;;;;16.40;1.55;;;8.10;99.90;;;;;;5147124;27;20483;-90
2024/01/03 00:23:55;;;;;;;18.20;1.47;;;7.80;99.90;;;;;;5111743;27;20403;-92
2024/01/03 00:26:25;;;;;;;18.17;1.60;;;7.80;99.90;;;;;;5113690;27;20762;-92
2024/01/03 00:28:51;;;;;;;22.83;2.30;;;8.00;99.90;;;;;;5111276;27;20497;-92
2024/01/03 00:31:23;;;;;;;16.02;1.67;;;7.90;99.90;;;;;;5113074;27;20430;-90
2024/01/03 00:33:49;;;;;;;24.25;2.50;;;7.90;99.90;;;;;;5111778;27;20407;-92
2024/01/03 00:36:16;;;;;;;21.42;2.30;;;7.80;99.90;;;;;;5112701;27;20928;-94
2024/01/03 00:38:43;;;;;;;20.58;2.10;;;7.80;99.90;;;;;;5112546;27;20405;-91
2024/01/03 00:41:09;;;;;;;17.48;1.67;;;7.80;99.90;;;;;;5130336;27;20396;-91
2024/01/03 00:43:39;;;;;;;21.83;2.40;;;7.90;99.90;;;;;;5133695;27;20430;-90
2024/01/03 00:46:06;;;;;;;19.60;2.00;;;8.30;99.90;;;;;;5132239;27;20388;-90
2024/01/03 00:48:32;;;;;;;24.95;3.00;;;7.80;99.90;;;;;;5133651;27;20428;-92
2024/01/03 00:50:59;;;;;;;24.92;3.47;;;8.10;99.90;;;;;;5132247;27;20389;-93
2024/01/03 00:53:25;;;;;;;22.30;2.65;;;7.70;99.90;;;;;;5113443;27;20540;-92
2024/01/03 00:55:51;;;;;;;27.48;3.03;;;7.80;99.90;;;;;;5111949;27;20410;-92
2024/01/03 00:58:17;;;;;;;27.38;3.35;;;7.90;99.90;;;;;;5112228;27;20399;-92
2024/01/03 01:00:43;;;;;;;29.25;3.85;;;7.90;99.90;;;;;;5117927;27;20759;-90
2024/01/03 01:03:09;;;;;;;28.00;3.20;;;8.00;99.90;;;;;;5131559;27;20404;-89
2024/01/03 01:05:35;;;;;;;27.93;2.70;;;8.00;99.90;;;;;;5132930;27;20492;-94
2024/01/03 01:08:04;;;;;;;28.88;3.47;;;7.80;99.90;;;;;;5130728;27;20969;-92
2024/01/03 01:10:30;;;;;;;28.47;3.30;;;7.90;99.90;;;;;;5138461;27;20459;-92
2024/01/03 01:12:56;;;;;;;30.37;3.20;;;7.90;99.90;;;;;;5111122;27;20414;-92
2024/01/03 01:15:22;;;;;;;30.73;3.83;;;8.00;99.90;;;;;;5128874;27;20437;-92
2024/01/03 01:17:47;;;;;;;28.48;3.45;;;7.90;99.90;;;;;;5111484;27;20459;-90
2024/01/03 01:20:13;;;;;;;26.15;3.03;;;8.00;99.90;;;;;;5128001;27;20397;-89
2024/01/03 01:22:39;;;;;;;24.65;3.20;;;7.70;99.90;;;;;;5132029;27;20447;-90
2024/01/03 01:25:05;;;;;;;23.80;3.13;;;8.00;99.90;;;;;;5130523;27;20397;-91
2024/01/03 01:27:31;;;;;;;27.97;3.40;;;7.90;99.90;;;;;;5131742;27;20429;-92
2024/01/03 01:29:56;;;;;;;21.30;2.53;;;8.10;99.90;;;;;;5148383;27;20397;-91
2024/01/03 01:32:22;;;;;;;24.67;3.20;;;7.80;99.90;;;;;;5132346;27;20401;-91
2024/01/03 01:34:47;;;;;;;29.83;3.40;;;8.10;99.90;;;;;;5131607;27;20401;-89
2024/01/03 01:37:13;;;;;;;24.47;3.30;;;7.80;99.90;;;;;;5131349;27;20426;-92
2024/01/03 01:39:40;;;;;;;25.90;3.28;;;7.90;99.90;;;;;;5132070;27;20393;-87
2024/01/03 01:42:06;;;;;;;30.93;2.80;;;7.90;99.90;;;;;;5130279;27;20421;-93
2024/01/03 01:44:31;;;;;;;26.83;2.87;;;8.00;99.90;;;;;;5131813;27;20536;-92
2024/01/03 01:46:58;;;;;;;25.55;2.58;;;7.90;99.90;;;;;;5116855;27;20418;-90
2024/01/03 01:49:24;;;;;;;23.70;2.42;;;7.90;99.90;;;;;;5111696;27;20391;-89
2024/01/03 01:51:50;;;;;;;28.77;2.50;;;7.90;99.90;;;;;;5127359;27;20615;-93
2024/01/03 01:54:17;;;;;;;20.80;2.35;;;7.90;99.90;;;;;;5111228;27;20933;-92
2024/01/03 01:56:43;;;;;;;26.63;3.42;;;7.90;99.90;;;;;;5110702;27;20426;-89
2024/01/03 01:59:10;;;;;;;24.63;2.45;;;7.90;99.90;;;;;;5127609;27;20461;-91
2024/01/03 02:01:36;;;;;;;21.13;2.15;;;8.00;99.90;;;;;;5111654;27;20443;-89
2024/01/03 02:04:08;;;;;;;26.42;2.30;;;8.00;99.90;;;;;;5109735;27;20918;-90
2024/01/03 02:06:35;;;;;;;24.45;2.72;;;7.90;99.90;;;;;;5111151;28;20407;-89
2024/01/03 02:09:00;;;;;;;22.37;3.03;;;7.90;99.90;;;;;;5110612;27;20406;-89
2024/01/03 02:11:26;;;;;;;23.87;2.23;;;8.00;99.90;;;;;;5112837;27;20398;-89
2024/01/03 02:13:52;;;;;;;22.15;2.45;;;8.10;99.90;;;;;;5131162;27;20404;-90
2024/01/03 02:16:18;;;;;;;20.27;2.30;;;8.00;99.90;;;;;;5130468;27;20421;-92
2024/01/03 02:18:45;;;;;;;17.92;2.30;;;8.30;99.90;;;;;;5131045;27;20519;-90
2024/01/03 02:21:15;;;;;;;17.80;2.03;;;8.00;99.90;;;;;;5147810;27;20413;-91
2024/01/03 02:23:41;;;;;;;24.83;2.65;;;8.10;99.90;;;;;;5131331;27;20475;-86
2024/01/03 02:26:08;;;;;;;17.88;1.77;;;8.20;99.90;;;;;;5130111;27;20401;-92
2024/01/03 02:28:34;;;;;;;18.10;1.97;;;8.00;99.90;;;;;;5148409;27;20448;-90
2024/01/03 02:30:59;;;;;;;16.27;1.83;;;8.10;99.90;;;;;;5130727;27;20755;-90
2024/01/03 02:33:25;;;;;;;17.23;1.97;;;8.10;99.90;;;;;;5130219;27;20484;-89
2024/01/03 02:35:51;;;;;;;21.17;2.40;;;8.10;99.90;;;;;;5151526;27;20510;-91
2024/01/03 02:38:17;;;;;;;16.70;1.70;;;8.00;99.90;;;;;;5151485;27;20399;-90
2024/01/03 02:40:44;;;;;;;18.63;1.80;;;8.00;99.90;;;;;;5131441;27;21002;-89
2024/01/03 02:43:12;;;;;;;15.10;1.63;;;8.20;99.90;;;;;;5113609;27;20434;-89
2024/01/03 02:45:37;;;;;;;17.83;2.45;;;8.10;99.90;;;;;;5094509;28;20469;-92
2024/01/03 02:48:03;;;;;;;14.80;1.90;;;8.00;99.90;;;;;;5127361;27;20847;-90
2024/01/03 02:50:29;;;;;;;14.18;1.90;;;8.10;99.90;;;;;;5128438;27;21017;-89
2024/01/03 02:52:55;;;;;;;16.63;1.83;;;8.10;99.90;;;;;;5128083;27;20671;-91
2024/01/03 02:55:21;;;;;;;15.68;2.08;;;8.20;99.90;;;;;;5127337;27;20404;-91
2024/01/03 02:57:47;;;;;;;11.75;1.30;;;8.10;99.90;;;;;;5128499;27;20404;-91
2024/01/03 03:00:13;;;;;;;16.25;2.28;;;8.20;99.90;;;;;;5127075;27;20412;-91
2024/01/03 03:02:39;;;;;;;11.63;1.73;;;8.10;99.90;;;;;;5128309;27;20399;-89
2024/01/03 03:05:05;;;;;;;15.15;1.30;;;8.20;99.90;;;;;;5127176;27;20845;-91
2024/01/03 03:07:30;;;;;;;10.70;0.95;;;8.20;99.90;;;;;;5128140;27;20430;-88
2024/01/03 03:09:56;;;;;;;12.03;1.50;;;8.20;99.90;;;;;;5127374;27;20763;-91
2024/01/03 03:12:22;;;;;;;12.10;1.20;;;8.20;99.90;;;;;;5144582;27;20395;-91
2024/01/03 03:14:47;;;;;;;12.27;1.88;;;8.10;99.90;;;;;;5114623;27;20757;-90
2024/01/03 03:17:13;;;;;;;15.47;2.07;;;8.20;99.90;;;;;;5112808;27;20391;-88
2024/01/03 03:19:39;;;;;;;14.10;1.02;;;8.20;99.90;;;;;;5114102;27;20406;-91
2024/01/03 03:22:04;;;;;;;12.25;1.20;;;8.20;99.90;;;;;;5113078;27;20897;-90
2024/01/03 03:24:30;;;;;;;14.07;1.70;;;8.20;99.90;;;;;;5114217;27;20454;-88
2024/01/03 03:26:56;;;;;;;15.40;1.47;;;8.20;99.90;;;;;;5113191;27;20797;-92
2024/01/03 03:29:21;;;;;;;13.60;1.35;;;8.20;99.90;;;;;;5113812;27;20422;-88
2024/01/03 03:31:47;;;;;;;10.73;0.95;;;8.30;99.90;;;;;;5113868;27;20429;-89
2024/01/03 03:34:18;;;;;;;10.33;1.10;;;8.30;99.90;;;;;;5112921;27;20398;-89
2024/01/03 03:36:44;;;;;;;10.50;1.02;;;8.30;99.90;;;;;;5113866;27;20466;-90
2024/01/03 03:39:10;;;;;;;8.75;1.00;;;8.30;99.90;;;;;;5112086;27;20422;-89
2024/01/03 03:41:37;;;;;;;10.47;1.07;;;8.40;99.90;;;;;;5113800;27;20391;-90
2024/01/03 03:44:02;;;;;;;10.32;1.23;;;8.40;99.90;;;;;;5112839;27;20398;-92
2024/01/03 03:46:28;;;;;;;9.98;1.15;;;8.50;99.90;;;;;;5112717;27;20762;-92
2024/01/03 03:48:54;;;;;;;15.43;1.50;;;8.40;99.90;;;;;;5113133;27;20426;-91
2024/01/03 03:51:19;;;;;;;14.60;2.28;;;8.40;99.90;;;;;;5127713;27;20404;-91
2024/01/03 03:53:45;;;;;;;10.15;1.20;;;8.60;99.90;;;;;;5141338;27;20856;-89
2024/01/03 03:56:21;;;;;;;12.67;1.27;;;8.40;99.90;;;;;;5112136;27;20988;-91
2024/01/03 03:58:47;;;;;;;11.45;1.17;;;8.40;99.90;;;;;;5113488;27;20430;-91
2024/01/03 04:01:12;;;;;;;10.53;1.30;;;8.50;99.90;;;;;;5112210;27;20876;-91
2024/01/03 04:03:38;;;;;;;9.57;1.05;;;8.60;99.90;;;;;;5112831;27;20406;-92
2024/01/03 04:06:04;;;;;;;7.63;0.70;;;8.40;99.90;;;;;;5112898;27;20398;-91
2024/01/03 04:08:29;;;;;;;8.35;1.00;;;8.40;99.90;;;;;;5119609;27;20852;-90
2024/01/03 04:10:55;;;;;;;10.95;0.98;;;8.40;99.90;;;;;;5133827;27;20831;-90
2024/01/03 04:13:20;;;;;;;7.70;0.80;;;8.70;99.90;;;;;;5132351;27;20492;-92
2024/01/03 04:15:46;;;;;;;8.88;1.00;;;8.40;99.90;;;;;;5133685;27;20397;-90
2024/01/03 04:18:12;;;;;;;11.05;0.80;;;8.50;99.90;;;;;;5132112;27;20532;-88
2024/01/03 04:20:37;;;;;;;8.10;1.20;;;8.50;99.90;;;;;;5134135;27;20408;-90
2024/01/03 04:23:03;;;;;;;10.87;1.20;;;8.70;99.90;;;;;;5132369;27;20479;-89
2024/01/03 04:25:29;;;;;;;8.00;0.90;;;8.50;99.90;;;;;;5150558;27;20405;-90
2024/01/03 04:27:54;;;;;;;8.93;0.90;;;8.70;99.90;;;;;;5132874;27;20784;-89
2024/01/03 04:30:20;;;;;;;11.10;0.90;;;8.60;99.90;;;;;;5132152;27;20399;-89
2024/01/03 04:32:45;;;;;;;7.65;0.63;;;8.60;99.90;;;;;;5133128;27;20401;-91
2024/01/03 04:35:11;;;;;;;8.43;0.70;;;8.60;99.90;;;;;;5140020;27;20398;-91
2024/01/03 04:37:36;;;;;;;4.93;0.90;;;8.60;99.90;;;;;;5112873;27;20395;-90
2024/01/03 04:40:02;;;;;;;5.10;0.60;;;8.60;99.90;;;;;;5111738;27;20395;-89
2024/01/03 04:42:28;;;;;;;7.90;1.30;;;8.60;99.90;;;;;;5112441;27;20489;-92
2024/01/03 04:44:54;;;;;;;7.80;0.90;;;8.60;99.90;;;;;;5129035;27;20966;-89
2024/01/03 04:47:19;;;;;;;10.27;1.30;;;8.60;99.90;;;;;;5111410;27;20430;-89
2024/01/03 04:49:45;;;;;;;11.73;1.80;;;8.60;99.90;;;;;;5112244;27;20825;-90
2024/01/03 04:52:11;;;;;;;12.90;1.50;;;9.00;99.90;;;;;;5111405;27;20391;-92
2024/01/03 04:54:37;;;;;;;14.52;1.50;;;8.50;99.90;;;;;;5112740;27;20418;-92
2024/01/03 04:57:03;;;;;;;10.50;1.48;;;8.80;99.90;;;;;;5127177;27;20403;-93
2024/01/03 04:59:29;;;;;;;13.68;1.52;;;8.70;99.90;;;;;;5112544;27;20493;-88
2024/01/03 05:01:54;;;;;;;12.48;2.05;;;8.70;99.90;;;;;;5110792;27;20496;-89
2024/01/03 05:04:20;;;;;;;16.58;2.28;;;8.70;99.90;;;;;;5128989;27;20398;-93
2024/01/03 05:06:46;;;;;;;10.97;1.37;;;8.80;99.90;;;;;;5111735;27;20420;-90
2024/01/03 05:09:12;;;;;;;10.80;1.27;;;8.80;99.90;;;;;;5111292;27;20398;-95
2024/01/03 05:11:38;;;;;;;13.57;1.50;;;8.60;99.90;;;;;;5112240;27;20477;-90
2024/01/03 05:14:03;;;;;;;12.00;1.65;;;8.80;99.90;;;;;;5111196;27;20402;-90
2024/01/03 05:16:29;;;;;;;12.07;1.40;;;8.80;99.90;;;;;;5111749;27;20970;-92
2024/01/03 05:18:55;;;;;;;12.48;1.63;;;9.20;99.90;;;;;;5110748;27;20507;-90
2024/01/03 05:21:20;;;;;;;12.98;1.42;;;8.90;99.90;;;;;;5112043;27;20769;-94
2024/01/03 05:23:46;;;;;;;12.10;1.60;;;9.00;99.90;;;;;;5111124;27;20976;-91
2024/01/03 05:26:13;;;;;;;14.07;1.65;;;8.80;99.90;;;;;;5111023;27;20464;-90
2024/01/03 05:28:39;;;;;;;10.98;1.60;;;8.80;99.90;;;;;;5111831;27;20463;-91
2024/01/03 05:31:04;;;;;;;9.52;1.00;;;8.80;99.90;;;;;;5126727;27;20377;-89
2024/01/03 05:33:30;;;;;;;8.75;1.13;;;8.70;99.90;;;;;;5132763;27;20465;-93
2024/01/03 05:35:56;;;;;;;9.70;1.20;;;8.60;99.90;;;;;;5130721;27;20892;-91
2024/01/03 05:38:21;;;;;;;12.70;1.77;;;8.60;99.90;;;;;;5125989;27;20418;-90
2024/01/03 05:40:47;;;;;;;11.38;1.50;;;8.50;99.90;;;;;;5110535;27;20390;-93
2024/01/03 05:43:14;;;;;;;17.37;2.23;;;8.80;99.90;;;;;;5111434;27;20828;-91
2024/01/03 05:45:40;;;;;;;20.60;3.03;;;8.50;99.90;;;;;;5111310;27;20403;-92
2024/01/03 05:48:06;;;;;;;33.67;4.18;;;8.60;99.90;;;;;;5110047;27;20785;-93
2024/01/03 05:50:32;;;;;;;31.38;4.13;;;8.50;99.90;;;;;;5111347;27;20398;-88
2024/01/03 05:52:58;;;;;;;30.42;4.50;;;8.60;99.90;;;;;;5109601;27;20434;-91
2024/01/03 05:55:23;;;;;;;33.15;4.85;;;8.60;99.90;;;;;;5110878;27;20399;-93
2024/01/03 05:57:49;;;;;;;31.43;4.33;;;8.70;99.90;;;;;;5109505;27;20399;-92
2024/01/03 06:00:15;;;;;;;33.23;4.20;;;8.60;99.90;;;;;;5110250;27;20489;-94
2024/01/03 06:02:42;;;;;;;28.13;3.97;;;8.60;99.90;;;;;;5128432;27;20396;-90
2024/01/03 06:05:09;;;;;;;33.20;3.78;;;8.70;99.90;;;;;;5107077;28;20392;-95
2024/01/03 06:07:35;;;;;;;27.70;3.90;;;8.70;99.90;;;;;;5124059;27;20456;-91
2024/01/03 06:10:00;;;;;;;33.28;4.68;;;8.70;99.90;;;;;;5123001;27;20444;-91
2024/01/03 06:12:26;;;;;;;31.73;4.32;;;8.80;99.90;;;;;;5124281;27;20408;-91
2024/01/03 06:14:51;;;;;;;28.17;4.53;;;8.80;99.90;;;;;;5123409;27;20412;-92
2024/01/03 06:17:17;;;;;;;29.55;4.03;;;8.80;99.90;;;;;;5125227;27;20440;-94
2024/01/03 06:19:50;;;;;;;30.50;4.18;;;9.00;99.90;;;;;;5123543;27;20405;-95
2024/01/03 06:22:16;;;;;;;32.95;4.22;;;8.80;99.90;;;;;;5124444;27;20413;-94
2024/01/03 06:24:41;;;;;;;29.87;3.97;;;9.40;99.90;;;;;;5124864;27;20408;-93
2024/01/03 06:27:07;;;;;;;25.87;3.47;;;9.00;99.90;;;;;;5123545;27;20433;-92
2024/01/03 06:29:33;;;;;;;28.63;3.97;;;8.80;99.90;;;;;;5126703;27;20404;-90
2024/01/03 06:31:59;;;;;;;25.60;3.27;;;8.80;99.90;;;;;;5129606;27;20432;-91
2024/01/03 06:34:24;;;;;;;23.02;3.42;;;8.90;99.90;;;;;;5131726;27;20581;-92
2024/01/03 06:36:50;;;;;;;27.40;3.80;;;8.90;99.90;;;;;;5130327;27;20409;-92
2024/01/03 06:39:16;;;;;;;32.10;4.03;;;9.30;99.90;;;;;;5131296;27;20400;-93
2024/01/03 06:41:41;;;;;;;27.60;4.00;;;9.00;99.90;;;;;;5131376;27;20403;-91
2024/01/03 06:44:07;;;;;;;27.47;3.83;;;9.00;99.90;;;;;;5130726;27;20435;-90
2024/01/03 06:46:33;;;;;;;25.60;3.20;;;8.90;99.90;;;;;;5131190;27;20393;-92
2024/01/03 06:48:59;;;;;;;24.47;3.53;;;8.90;99.90;;;;;;5129591;27;20417;-93
2024/01/03 06:51:25;;;;;;;32.45;4.47;;;8.90;99.90;;;;;;5131527;27;20408;-90
2024/01/03 06:53:50;;;;;;;27.87;3.73;;;9.00;99.90;;;;;;5130132;27;20409;-93
2024/01/03 06:56:24;;;;;;;31.63;3.87;;;8.90;99.90;;;;;;5131598;27;20401;-90
2024/01/03 06:58:51;;;;;;;36.83;4.28;;;9.00;99.90;;;;;;5130697;27;20783;-95
2024/01/03 07:01:19;;;;;;;29.75;4.45;;;9.00;99.90;;;;;;5131475;27;20485;-92
2024/01/03 07:03:45;;;;;;;29.70;3.72;;;9.10;99.90;;;;;;5131433;27;20504;-93
2024/01/03 07:06:10;;;;;;;33.55;4.47;;;8.70;99.90;;;;;;5129994;27;20448;-94
2024/01/03 07:08:36;;;;;;;34.77;4.73;;;9.10;99.90;;;;;;5131496;27;20428;-94
2024/01/03 07:11:02;;;;;;;29.80;4.38;;;9.00;99.90;;;;;;5130475;27;20409;-95
2024/01/03 07:13:28;;;;;;;30.80;4.25;;;8.90;99.90;;;;;;5131359;27;20413;-91
2024/01/03 07:15:54;;;;;;;26.20;4.03;;;8.90;99.90;;;;;;5147387;27;20405;-91
2024/01/03 07:18:20;;;;;;;27.73;3.70;;;8.90;99.90;;;;;;5115909;27;20406;-90
2024/01/03 07:20:45;;;;;;;27.88;3.58;;;9.00;99.90;;;;;;5131966;27;20401;-94
2024/01/03 07:23:16;;;;;;;24.87;3.27;;;9.10;99.90;;;;;;5134302;27;20466;-93
2024/01/03 07:25:45;;;;;;;22.15;3.10;;;8.90;99.90;;;;;;5135183;27;20483;-94
2024/01/03 07:28:11;;;;;;;27.60;3.20;;;8.90;99.90;;;;;;5127267;27;20505;-92
2024/01/03 07:30:37;;;;;;;22.38;3.22;;;8.90;99.90;;;;;;5111121;28;20412;-94
2024/01/03 07:33:04;;;;;;;26.20;3.42;;;8.90;99.90;;;;;;5092400;28;20473;-92
2024/01/03 07:35:29;;;;;;;24.45;2.72;;;8.90;99.90;;;;;;5103431;27;20390;-91
2024/01/03 07:37:58;;;;;;;30.67;3.47;;;9.00;99.90;;;;;;5113332;27;20930;-93
2024/01/03 07:40:24;;;;;;;23.55;2.92;;;9.00;99.90;;;;;;5131577;27;20914;-95
2024/01/03 07:42:49;;;;;;;24.98;3.50;;;8.90;99.90;;;;;;5113801;27;20405;-92
2024/01/03 07:45:18;;;;;;;22.00;2.88;;;8.80;99.90;;;;;;5130169;27;20399;-91
2024/01/03 07:47:43;;;;;;;24.23;3.20;;;8.80;99.90;;;;;;5113173;27;20478;-92
2024/01/03 07:50:09;;;;;;;25.25;3.17;;;8.70;99.90;;;;;;5131842;27;20476;-91
2024/01/03 07:52:35;;;;;;;25.55;3.25;;;9.10;99.90;;;;;;5119945;27;20402;-95
2024/01/03 07:55:01;;;;;;;22.77;2.40;;;8.80;99.90;;;;;;5122757;27;20393;-91
2024/01/03 07:57:27;;;;;;;27.17;3.40;;;8.60;99.90;;;;;;5135630;27;20412;-91
2024/01/03 07:59:53;;;;;;;24.03;3.30;;;8.50;99.90;;;;;;5135651;27;20842;-92
2024/01/03 08:02:21;;;;;;;26.23;3.30;;;9.00;99.90;;;;;;5114652;27;20531;-93
2024/01/03 08:04:47;;;;;;;32.00;3.30;;;9.10;99.90;;;;;;5116257;27;20395;-91
2024/01/03 08:07:12;;;;;;;25.37;3.30;;;9.10;99.90;;;;;;5124001;27;20504;-93
2024/01/03 08:09:39;;;;;;;26.93;3.37;;;8.90;99.90;;;;;;5128384;27;20816;-94
2024/01/03 08:12:06;;;;;;;21.63;3.00;;;9.00;99.90;;;;;;5095450;27;20459;-94
2024/01/03 08:14:32;;;;;;;24.80;3.28;;;9.00;99.90;;;;;;5113850;27;20402;-93
2024/01/03 08:16:57;;;;;;;26.30;3.23;;;9.10;99.90;;;;;;5112273;27;20399;-93
2024/01/03 08:19:23;;;;;;;17.98;2.90;;;9.10;99.90;;;;;;5113695;27;20394;-94
2024/01/03 08:21:49;;;;;;;15.50;2.53;;;9.00;99.90;;;;;;5130105;27;20879;-92
2024/01/03 08:24:14;;;;;;;20.43;3.00;;;9.20;99.90;;;;;;5112977;27;20387;-94
2024/01/03 08:26:40;;;;;;;27.03;2.97;;;9.00;99.90;;;;;;5113663;27;20452;-90
2024/01/03 08:29:13;;;;;;;27.52;3.50;;;9.00;99.90;;;;;;5113592;27;20448;-93
2024/01/03 08:31:39;;;;;;;22.40;3.20;;;9.10;99.90;;;;;;5127817;27;20472;-94
2024/01/03 08:34:05;;;;;;;25.05;2.97;;;9.00;99.90;;;;;;5136109;27;20445;-92
2024/01/03 08:36:44;;;;;;;22.03;2.83;;;9.00;99.90;;;;;;5150085;27;20398;-92
2024/01/03 08:39:10;;;;;;;24.25;3.53;;;8.90;99.90;;;;;;5112537;27;20403;-91
2024/01/03 08:41:36;;;;;;;25.00;3.70;;;9.00;99.90;;;;;;5114975;27;20421;-93
2024/01/03 08:44:05;;;;;;;30.77;3.42;;;9.00;99.90;;;;;;5117175;27;20845;-93
2024/01/03 08:46:42;;;;;;;22.97;2.73;;;8.90;99.90;;;;;;5114936;27;20417;-92
2024/01/03 08:49:08;;;;;;;24.02;3.08;;;8.90;99.90;;;;;;5129826;27;20430;-90
2024/01/03 08:51:35;;;;;;;25.37;3.40;;;8.90;99.90;;;;;;5095263;27;20439;-93
2024/01/03 08:54:00;;;;;;;28.17;3.72;;;8.90;99.90;;;;;;5131908;27;20403;-93
2024/01/03 08:56:26;;;;;;;24.80;3.10;;;9.10;99.90;;;;;;5111762;27;20395;-92
2024/01/03 08:58:53;;;;;;;21.80;3.40;;;9.10;99.90;;;;;;5131099;27;20398;-95
2024/01/03 09:01:21;;;;;;;22.73;2.80;;;9.00;99.90;;;;;;5111979;27;20540;-94
2024/01/03 09:03:48;;;;;;;18.27;2.50;;;9.00;99.90;;;;;;5130848;27;20394;-93
2024/01/03 09:06:18;;;;;;;18.80;2.40;;;9.00;99.90;;;;;;5112220;27;20746;-91
2024/01/03 09:08:44;;;;;;;17.70;2.38;;;8.90;99.90;;;;;;5112383;27;20922;-89
2024/01/03 09:11:11;;;;;;;19.13;2.78;;;9.80;99.90;;;;;;5111804;27;20394;-94
2024/01/03 09:13:40;;;;;;;16.73;2.33;;;9.20;99.90;;;;;;5111425;27;20490;-88
2024/01/03 09:16:07;;;;;;;20.58;2.47;;;9.60;99.90;;;;;;5111950;27;20422;-95
2024/01/03 09:18:33;;;;;;;15.05;2.30;;;9.20;99.90;;;;;;5127827;27;20469;-95
2024/01/03 09:21:02;;;;;;;14.33;2.00;;;9.20;99.90;;;;;;5112713;27;20441;-94
2024/01/03 09:23:28;;;;;;;15.10;2.30;;;9.20;99.90;;;;;;5110431;27;20446;-94
2024/01/03 09:25:55;;;;;;;15.80;1.77;;;9.40;99.90;;;;;;5146002;27;20414;-91
2024/01/03 09:28:25;;;;;;;16.85;2.28;;;9.30;99.90;;;;;;5111670;27;20429;-94
2024/01/03 09:30:53;;;;;;;15.25;2.53;;;9.30;99.90;;;;;;5110647;27;20490;-94
2024/01/03 09:33:22;;;;;;;15.68;2.45;;;9.30;99.90;;;;;;5111753;27;20873;-93
2024/01/03 09:35:48;;;;;;;15.63;1.75;;;9.30;99.90;;;;;;5110846;27;20399;-91
2024/01/03 09:38:16;;;;;;;13.30;1.60;;;9.40;99.90;;;;;;5112055;27;20409;-94
2024/01/03 09:40:43;;;;;;;11.65;1.38;;;9.60;99.90;;;;;;5111726;27;20470;-90
2024/01/03 09:43:20;;;;;;;13.00;1.45;;;9.10;99.90;;;;;;5112876;28;20391;-94
2024/01/03 09:45:47;;;;;;;11.68;1.13;;;9.20;99.90;;;;;;5113732;27;20407;-94
2024/01/03 09:48:13;;;;;;;11.52;1.33;;;9.30;99.90;;;;;;5150224;27;21254;-92
2024/01/03 09:50:39;;;;;;;11.75;1.40;;;9.40;99.90;;;;;;5134125;27;20389;-94
2024/01/03 09:53:10;;;;;;;14.40;1.35;;;9.70;99.90;;;;;;5148807;27;20801;-95
2024/01/03 09:55:37;;;;;;;15.30;1.58;;;9.60;99.90;;;;;;5142235;27;21160;-94
2024/01/03 09:58:04;;;;;;;15.35;2.03;;;9.30;99.90;;;;;;5112534;27;20395;-93
2024/01/03 10:00:30;;;;;;;13.53;1.90;;;9.40;99.90;;;;;;5113188;27;20477;-93
2024/01/03 10:03:03;;;;;;;12.80;1.80;;;9.70;99.90;;;;;;5110308;27;20520;-94
2024/01/03 10:05:32;;;;;;;14.07;2.00;;;9.50;99.90;;;;;;5128746;27;20489;-91
2024/01/03 10:07:58;;;;;;;17.52;2.10;;;9.50;99.90;;;;;;5111667;27;20586;-93
2024/01/03 10:10:34;;;;;;;18.63;2.63;;;9.50;99.90;;;;;;5111133;27;20825;-93
2024/01/03 10:13:19;;;;;;;19.08;2.38;;;9.80;99.90;;;;;;5111572;27;20928;-92
2024/01/03 10:15:46;;;;;;;15.60;1.67;;;9.60;99.90;;;;;;5127036;27;20402;-91
2024/01/03 10:18:15;;;;;;;12.60;1.17;;;9.40;99.90;;;;;;5110757;28;20391;-91
2024/01/03 10:20:42;;;;;;;12.32;1.33;;;9.60;99.90;;;;;;5110794;27;20410;-94
2024/01/03 10:23:13;;;;;;;11.75;1.40;;;9.30;99.90;;;;;;5093578;27;20762;-92
2024/01/03 10:25:40;;;;;;;16.20;1.58;;;9.10;99.90;;;;;;5119381;27;20401;-89
2024/01/03 10:28:11;;;;;;;13.07;1.33;;;9.20;99.90;;;;;;5129711;27;20425;-92
2024/01/03 10:30:37;;;;;;;12.88;2.05;;;9.10;99.90;;;;;;5124129;27;20395;-93
2024/01/03 10:33:05;;;;;;;13.80;1.95;;;9.00;99.90;;;;;;5109155;28;20394;-91
2024/01/03 10:35:33;;;;;;;17.40;1.95;;;9.20;99.90;;;;;;5111110;28;20407;-93
2024/01/03 10:38:00;;;;;;;15.80;1.30;;;9.60;99.90;;;;;;5110976;27;20757;-93
2024/01/03 10:40:28;;;;;;;16.52;2.15;;;9.30;99.90;;;;;;5110478;28;20401;-91
2024/01/03 10:42:54;;;;;;;21.90;2.13;;;9.30;99.90;;;;;;5110964;27;20402;-90
2024/01/03 10:45:20;;;;;;;17.08;1.95;;;9.40;99.90;;;;;;5109513;28;20425;-94
2024/01/03 10:47:46;;;;;;;21.33;2.28;;;9.40;99.90;;;;;;5111400;28;20482;-91
2024/01/03 10:50:12;;;;;;;19.23;2.42;;;9.60;99.90;;;;;;5112069;28;20434;-93
2024/01/03 10:52:42;;;;;;;18.83;3.03;;;9.40;99.90;;;;;;5113369;27;20489;-96
2024/01/03 10:55:29;;;;;;;22.92;2.65;;;9.70;99.90;;;;;;5111452;27;20402;-95
2024/01/03 10:58:00;;;;;;;21.58;2.72;;;9.60;99.90;;;;;;5116250;27;20433;-92
2024/01/03 11:00:35;;;;;;;23.70;2.90;;;10.10;99.90;;;;;;5115844;27;20465;-95
2024/01/03 11:03:16;;;;;;;23.05;2.15;;;9.80;99.90;;;;;;5114539;27;20414;-91
2024/01/03 11:06:10;;;;;;;21.67;2.80;;;9.90;99.90;;;;;;5133864;27;20381;-93
2024/01/03 11:08:54;;;;;;;19.42;2.58;;;10.00;99.90;;;;;;5113164;27;21016;-95
2024/01/03 11:11:37;;;;;;;18.83;2.67;;;10.00;99.90;;;;;;5115168;27;20793;-95
2024/01/03 11:14:23;;;;;;;22.00;3.10;;;10.00;99.90;;;;;;5114909;27;20446;-94
2024/01/03 11:16:52;;;;;;;19.60;3.07;;;10.10;99.90;;;;;;5115316;27;20409;-93
2024/01/03 11:19:28;;;;;;;21.13;2.73;;;10.70;99.90;;;;;;5115468;27;20399;-94
2024/01/03 11:21:53;;;;;;;19.73;2.63;;;10.20;99.90;;;;;;5113700;27;21074;-91
2024/01/03 11:24:19;;;;;;;17.10;2.70;;;10.30;99.90;;;;;;5131123;27;20494;-92
2024/01/03 11:26:57;;;;;;;20.80;2.47;;;10.20;99.90;;;;;;5114316;27;20407;-93
2024/01/03 11:29:48;;;;;;;20.02;2.95;;;10.60;99.90;;;;;;5113502;27;20394;-94
2024/01/03 11:32:24;;;;;;;16.40;2.13;;;10.60;99.90;;;;;;5114495;27;20415;-95
2024/01/03 11:34:50;;;;;;;20.27;2.53;;;10.60;99.90;;;;;;5113577;27;20924;-91
2024/01/03 11:37:18;;;;;;;15.97;2.00;;;10.70;99.90;;;;;;5113924;27;20402;-92
2024/01/03 11:39:50;;;;;;;17.77;2.35;;;10.40;99.90;;;;;;5113772;27;20459;-92
2024/01/03 11:42:21;;;;;;;14.52;1.67;;;10.40;99.90;;;;;;5130908;27;20393;-94
2024/01/03 11:45:19;;;;;;;18.30;1.85;;;10.50;99.90;;;;;;5152166;27;20412;-93
2024/01/03 11:47:50;;;;;;;17.17;2.50;;;10.20;99.90;;;;;;5128658;27;20787;-94
2024/01/03 11:50:16;;;;;;;15.38;1.80;;;10.10;99.90;;;;;;5134751;27;20506;-94
2024/01/03 11:52:47;;;;;;;14.55;2.08;;;10.00;99.90;;;;;;5151791;27;20437;-92
2024/01/03 11:55:16;;;;;;;15.52;2.22;;;10.00;99.90;;;;;;5133695;27;20389;-90
2024/01/03 11:57:43;;;;;;;17.02;2.35;;;10.20;99.90;;;;;;5135243;27;20399;-94
2024/01/03 12:00:21;;;;;;;15.40;2.65;;;10.40;99.90;;;;;;5123667;27;20402;-93
2024/01/03 12:02:50;;;;;;;16.42;1.77;;;10.10;99.90;;;;;;5129079;27;20395;-96
2024/01/03 12:05:16;;;;;;;14.73;1.77;;;10.50;99.90;;;;;;5111751;27;20406;-92
2024/01/03 12:07:42;;;;;;;14.40;2.05;;;10.10;99.90;;;;;;5112105;27;20421;-90
2024/01/03 12:10:11;;;;;;;15.23;1.63;;;10.20;99.90;;;;;;5113241;27;20399;-94
2024/01/03 12:12:37;;;;;;;20.35;2.80;;;10.10;99.90;;;;;;5129570;27;20481;-91
2024/01/03 12:15:03;;;;;;;13.35;1.70;;;10.40;99.90;;;;;;5114435;27;20490;-94
2024/01/03 12:17:31;;;;;;;14.73;2.10;;;10.10;99.90;;;;;;5128399;27;20425;-92
2024/01/03 12:20:11;;;;;;;19.15;2.53;;;10.10;99.90;;;;;;5114486;27;20398;-94
2024/01/03 12:22:40;;;;;;;15.40;1.95;;;10.20;99.90;;;;;;5113579;27;20399;-93
2024/01/03 12:25:15;;;;;;;18.08;2.00;;;10.20;99.90;;;;;;5133531;27;20801;-92
2024/01/03 12:27:41;;;;;;;15.25;1.90;;;10.30;99.90;;;;;;5151301;27;20431;-93
2024/01/03 12:30:19;;;;;;;15.15;1.77;;;10.60;99.90;;;;;;5118990;27;20462;-93
2024/01/03 12:32:46;;;;;;;14.15;2.15;;;10.30;99.90;;;;;;5130696;27;20410;-93
2024/01/03 12:35:12;;;;;;;12.65;1.83;;;10.30;99.90;;;;;;5117426;27;20396;-93
2024/01/03 12:37:49;;;;;;;14.97;2.40;;;10.40;99.90;;;;;;5132499;27;20898;-92
2024/01/03 12:40:17;;;;;;;16.55;1.95;;;10.40;99.90;;;;;;5112283;27;20399;-92
2024/01/03 12:42:50;;;;;;;16.30;2.22;;;10.40;99.90;;;;;;5112459;27;20414;-93
2024/01/03 12:45:15;;;;;;;14.93;2.25;;;10.50;99.90;;;;;;5114371;27;20757;-96
2024/01/03 12:47:44;;;;;;;14.35;1.77;;;11.00;99.90;;;;;;5115881;27;20422;-96